Hampton Falls, NH (03844)

3:24 PM EDT on September 30, 2014 (GMT -0400)
Coburn Woods | Change Station
CLOSE
Current Station
Personal Weather Station
Location: Hampton Falls, NH
Elevation: 115 ft
Nearby Weather Stations

Elev 115 ft 42.92 °N, 70.88 °W | Updated 13 minutes ago

Overcast
Overcast
56.1 °F
Feels Like 56.1 °F
N
0.0
Wind Variable Wind from ENE

Today
High -- | Low -- °F
--% Chance of Precip.
Yesterday
High -- | Low -- °F
Precip. -- in
6:39 AM 6:26 PM
Waxing Crescent, 39% visible
Pressure 30.03 in
Visibility 7.0 miles
Clouds Overcast 500 ft
Dew Point 54 °F
Humidity 94%
Rainfall 0.02 in
Snow Depth Not available.
UV 1 out of 12
Pollen .50 out of 12
Ozone Good
PM2.5 Good
Flu Activity Not available.
METAR KPSM 301858Z 08004KT 7SM OVC005 13/12 A3002 RMK AO2A SLP169 T01330119

More Conditions Fewer Conditions

Pressure 30.03 in
Visibility 7.0 miles
Clouds Overcast 500 ft
Dew Point 54 °F
Humidity 94%
Rainfall 0.02 in
Snow Depth Not available.
UV 1 out of 12
Pollen .50 out of 12
Ozone Good
PM2.5 Good
Flu Activity Not available.
METAR KPSM 301858Z 08004KT 7SM OVC005 13/12 A3002 RMK AO2A SLP169 T01330119

More Conditions Fewer Conditions

10-Day Weather Forecast

Almanac

Astronomy

Sep. 30, 2014 Rise Set
Actual Time 6:39 AM EDT 6:26 PM EDT
Civil Twilight 6:11 AM EDT 6:54 PM EDT
Nautical Twilight 5:38 AM EDT 7:27 PM EDT
Astronomical Twilight 5:05 AM EDT 8:00 PM EDT
Moon 12:51 PM EDT 10:47 PM EDT
Length of Visible Light 12h 43m
Length of Day
11h 46m
Tomorrow will be 2m 53s shorter.
Waxing Crescent, 39% of the Moon is Illuminated
Today
Waxing Crescent
Oct 1
First Quarter
Oct 8
Full
Oct 15
Last Quarter
Oct 23
New

Today's Extremes

State Highs State Lows

Community

WunderPhotos

Upload Photos

1,757,727 photos uploaded!

Nearby

Air Quality

  Air Quality AQ Index Pollutant
Yesterday Good
PM2.5
Yesterday Good
OZONE
Current Good
OZONE
Current Good
PM2.5
Tuesday Good
PM2.5
Tuesday Good
OZONE
Wednesday Good
PM2.5
Wednesday Good
OZONE

Snow Depth

Station Depth Elevation
No new snow has been reported.

Earthquake Activity

City Distance Mag. Time & Date
No recent earthquake activity has been reported nearby.
Minimum magnitude displayed is 2.5.

Coastal Water Temperatures

Place Temperature
Wells, ME 57.0 °F
Portland, ME 57.9 °F

Nearby Weather Stations